sensor_id;sensor_type;location;lat;lon;timestamp;pressure;altitude;pressure_sealevel;temperature;humidity
83762;BME280;73752;49.594;8.734;2024-01-30T00:00:48;100903.69;;;-0.02;86.96
83762;BME280;73752;49.594;8.734;2024-01-30T00:03:49;100910.03;;;0.05;86.53
83762;BME280;73752;49.594;8.734;2024-01-30T00:06:51;100888.47;;;-0.07;86.99
83762;BME280;73752;49.594;8.734;2024-01-30T00:09:53;100891.72;;;0.07;87.06
83762;BME280;73752;49.594;8.734;2024-01-30T00:12:53;100889.88;;;-0.03;87.18
83762;BME280;73752;49.594;8.734;2024-01-30T00:15:53;100907.91;;;0.10;86.94
83762;BME280;73752;49.594;8.734;2024-01-30T00:18:54;100905.66;;;0.06;87.06
83762;BME280;73752;49.594;8.734;2024-01-30T00:21:54;100898.09;;;0.14;86.94
83762;BME280;73752;49.594;8.734;2024-01-30T00:24:55;100906.94;;;0.22;86.87
83762;BME280;73752;49.594;8.734;2024-01-30T00:27:55;100900.34;;;-0.04;86.87
83762;BME280;73752;49.594;8.734;2024-01-30T00:30:55;100896.59;;;0.00;87.10
83762;BME280;73752;49.594;8.734;2024-01-30T00:33:56;100912.63;;;0.05;86.55
83762;BME280;73752;49.594;8.734;2024-01-30T00:36:56;100922.06;;;0.17;86.36
83762;BME280;73752;49.594;8.734;2024-01-30T00:39:56;100900.97;;;-0.01;86.43
83762;BME280;73752;49.594;8.734;2024-01-30T00:42:57;100898.59;;;-0.04;86.44
83762;BME280;73752;49.594;8.734;2024-01-30T00:45:57;100912.66;;;-0.06;86.06
83762;BME280;73752;49.594;8.734;2024-01-30T00:48:58;100898.72;;;-0.16;86.66
83762;BME280;73752;49.594;8.734;2024-01-30T00:51:58;100906.31;;;-0.24;86.10
83762;BME280;73752;49.594;8.734;2024-01-30T00:55:02;100902.97;;;-0.26;86.06
83762;BME280;73752;49.594;8.734;2024-01-30T00:58:03;100905.47;;;-0.25;86.13
83762;BME280;73752;49.594;8.734;2024-01-30T01:01:03;100903.69;;;-0.24;86.64
83762;BME280;73752;49.594;8.734;2024-01-30T01:04:04;100901.44;;;-0.18;87.21
83762;BME280;73752;49.594;8.734;2024-01-30T01:07:04;100900.84;;;-0.21;86.77
83762;BME280;73752;49.594;8.734;2024-01-30T01:10:05;100899.81;;;-0.19;87.38
83762;BME280;73752;49.594;8.734;2024-01-30T01:13:05;100908.50;;;0.03;86.98
83762;BME280;73752;49.594;8.734;2024-01-30T01:16:06;100895.66;;;-0.10;86.85
83762;BME280;73752;49.594;8.734;2024-01-30T01:19:06;100901.53;;;-0.08;86.78
83762;BME280;73752;49.594;8.734;2024-01-30T01:22:07;100892.75;;;-0.28;86.33
83762;BME280;73752;49.594;8.734;2024-01-30T01:25:08;100894.84;;;-0.22;86.30
83762;BME280;73752;49.594;8.734;2024-01-30T01:28:09;100904.63;;;-0.25;86.38
83762;BME280;73752;49.594;8.734;2024-01-30T01:31:09;100892.84;;;-0.29;86.54
83762;BME280;73752;49.594;8.734;2024-01-30T01:34:10;100891.56;;;-0.24;86.69
83762;BME280;73752;49.594;8.734;2024-01-30T01:37:11;100898.47;;;-0.13;87.44
83762;BME280;73752;49.594;8.734;2024-01-30T01:40:12;100906.16;;;-0.12;86.98
83762;BME280;73752;49.594;8.734;2024-01-30T01:43:17;100913.25;;;-0.14;87.49
83762;BME280;73752;49.594;8.734;2024-01-30T01:46:51;100911.25;;;-0.10;87.17
83762;BME280;73752;49.594;8.734;2024-01-30T01:50:27;100902.75;;;-0.34;86.50
83762;BME280;73752;49.594;8.734;2024-01-30T01:53:29;100874.22;;;-0.57;86.71
83762;BME280;73752;49.594;8.734;2024-01-30T01:56:31;100889.53;;;-0.54;86.73
83762;BME280;73752;49.594;8.734;2024-01-30T01:59:34;100874.94;;;-0.66;87.07
83762;BME280;73752;49.594;8.734;2024-01-30T02:02:36;100892.97;;;-0.42;86.99
83762;BME280;73752;49.594;8.734;2024-01-30T02:05:38;100882.72;;;-0.32;87.94
83762;BME280;73752;49.594;8.734;2024-01-30T02:08:40;100877.16;;;-0.39;87.64
83762;BME280;73752;49.594;8.734;2024-01-30T02:11:42;100873.59;;;-0.27;87.62
83762;BME280;73752;49.594;8.734;2024-01-30T02:14:50;100887.66;;;-0.40;87.27
83762;BME280;73752;49.594;8.734;2024-01-30T02:17:51;100896.38;;;-0.53;87.09
83762;BME280;73752;49.594;8.734;2024-01-30T02:20:55;100880.97;;;-0.54;87.13
83762;BME280;73752;49.594;8.734;2024-01-30T02:23:58;100888.00;;;-0.45;87.27
83762;BME280;73752;49.594;8.734;2024-01-30T02:27:01;100908.19;;;-0.60;86.96
83762;BME280;73752;49.594;8.734;2024-01-30T02:30:03;100911.84;;;-0.51;87.77
83762;BME280;73752;49.594;8.734;2024-01-30T02:33:06;100904.03;;;-0.62;87.32
83762;BME280;73752;49.594;8.734;2024-01-30T02:36:07;100883.88;;;-0.70;87.72
83762;BME280;73752;49.594;8.734;2024-01-30T02:39:09;100888.13;;;-0.69;87.10
83762;BME280;73752;49.594;8.734;2024-01-30T02:42:16;100906.97;;;-0.67;86.61
83762;BME280;73752;49.594;8.734;2024-01-30T02:45:23;100907.22;;;-0.70;86.51
83762;BME280;73752;49.594;8.734;2024-01-30T02:48:27;100902.38;;;-0.74;86.86
83762;BME280;73752;49.594;8.734;2024-01-30T02:51:28;100901.56;;;-0.75;86.86
83762;BME280;73752;49.594;8.734;2024-01-30T02:54:30;100902.00;;;-0.92;86.81
83762;BME280;73752;49.594;8.734;2024-01-30T02:57:32;100887.63;;;-0.96;87.42
83762;BME280;73752;49.594;8.734;2024-01-30T03:00:34;100896.81;;;-0.92;87.54
83762;BME280;73752;49.594;8.734;2024-01-30T03:03:36;100886.00;;;-0.86;87.16
83762;BME280;73752;49.594;8.734;2024-01-30T03:06:37;100907.56;;;-0.74;87.36
83762;BME280;73752;49.594;8.734;2024-01-30T03:09:41;100907.94;;;-0.79;87.22
83762;BME280;73752;49.594;8.734;2024-01-30T03:12:46;100885.72;;;-0.94;87.25
83762;BME280;73752;49.594;8.734;2024-01-30T03:15:47;100890.69;;;-0.91;87.39
83762;BME280;73752;49.594;8.734;2024-01-30T03:18:48;100899.19;;;-0.89;86.94
83762;BME280;73752;49.594;8.734;2024-01-30T03:21:50;100904.50;;;-0.79;87.34
83762;BME280;73752;49.594;8.734;2024-01-30T03:24:52;100891.16;;;-0.97;87.09
83762;BME280;73752;49.594;8.734;2024-01-30T03:27:53;100887.72;;;-0.98;87.00
83762;BME280;73752;49.594;8.734;2024-01-30T03:30:54;100883.28;;;-0.96;87.30
83762;BME280;73752;49.594;8.734;2024-01-30T03:33:55;100910.41;;;-0.77;87.27
83762;BME280;73752;49.594;8.734;2024-01-30T03:36:56;100907.44;;;-0.84;87.17
83762;BME280;73752;49.594;8.734;2024-01-30T03:39:56;100903.31;;;-0.86;87.30
83762;BME280;73752;49.594;8.734;2024-01-30T03:42:59;100898.69;;;-0.94;86.56
83762;BME280;73752;49.594;8.734;2024-01-30T03:46:03;100900.25;;;-0.92;87.26
83762;BME280;73752;49.594;8.734;2024-01-30T03:49:04;100911.56;;;-0.93;86.92
83762;BME280;73752;49.594;8.734;2024-01-30T03:52:05;100898.84;;;-0.84;86.88
83762;BME280;73752;49.594;8.734;2024-01-30T03:55:06;100906.50;;;-0.72;87.18
83762;BME280;73752;49.594;8.734;2024-01-30T03:58:07;100907.81;;;-0.77;87.37
83762;BME280;73752;49.594;8.734;2024-01-30T04:01:13;100903.19;;;-0.85;87.26
83762;BME280;73752;49.594;8.734;2024-01-30T04:04:14;100908.72;;;-0.90;87.04
83762;BME280;73752;49.594;8.734;2024-01-30T04:07:15;100906.13;;;-0.90;86.87
83762;BME280;73752;49.594;8.734;2024-01-30T04:10:16;100902.34;;;-0.85;87.56
83762;BME280;73752;49.594;8.734;2024-01-30T04:13:19;100888.06;;;-1.02;87.06
83762;BME280;73752;49.594;8.734;2024-01-30T04:16:21;100877.25;;;-0.96;87.30
83762;BME280;73752;49.594;8.734;2024-01-30T04:19:22;100907.78;;;-0.88;87.33
83762;BME280;73752;49.594;8.734;2024-01-30T04:22:23;100902.84;;;-0.92;87.36
83762;BME280;73752;49.594;8.734;2024-01-30T04:25:25;100905.09;;;-0.87;87.14
83762;BME280;73752;49.594;8.734;2024-01-30T04:28:27;100893.97;;;-1.00;87.11
83762;BME280;73752;49.594;8.734;2024-01-30T04:31:30;100905.28;;;-0.90;86.67
83762;BME280;73752;49.594;8.734;2024-01-30T04:34:31;100879.81;;;-1.07;87.27
83762;BME280;73752;49.594;8.734;2024-01-30T04:37:33;100891.25;;;-0.99;86.74
83762;BME280;73752;49.594;8.734;2024-01-30T04:40:34;100896.78;;;-1.03;86.80
83762;BME280;73752;49.594;8.734;2024-01-30T04:43:35;100886.06;;;-1.10;86.38
83762;BME280;73752;49.594;8.734;2024-01-30T04:46:37;100893.34;;;-1.15;86.69
83762;BME280;73752;49.594;8.734;2024-01-30T04:49:39;100887.94;;;-1.12;87.00
83762;BME280;73752;49.594;8.734;2024-01-30T04:52:41;100903.41;;;-0.99;86.47
83762;BME280;73752;49.594;8.734;2024-01-30T04:55:42;100891.50;;;-1.13;86.74
83762;BME280;73752;49.594;8.734;2024-01-30T04:58:43;100880.06;;;-1.10;86.51
83762;BME280;73752;49.594;8.734;2024-01-30T05:01:45;100884.06;;;-1.17;87.11
83762;BME280;73752;49.594;8.734;2024-01-30T05:04:46;100883.09;;;-1.16;87.06
83762;BME280;73752;49.594;8.734;2024-01-30T05:07:47;100913.50;;;-1.07;87.45
83762;BME280;73752;49.594;8.734;2024-01-30T05:10:49;100906.81;;;-0.99;86.98
83762;BME280;73752;49.594;8.734;2024-01-30T05:13:50;100909.84;;;-1.16;86.50
83762;BME280;73752;49.594;8.734;2024-01-30T05:16:51;100915.91;;;-1.04;87.05
83762;BME280;73752;49.594;8.734;2024-01-30T05:19:52;100913.16;;;-1.14;86.91
83762;BME280;73752;49.594;8.734;2024-01-30T05:22:56;100916.00;;;-1.06;86.91
83762;BME280;73752;49.594;8.734;2024-01-30T05:25:57;100921.03;;;-1.15;87.28
83762;BME280;73752;49.594;8.734;2024-01-30T05:29:01;100918.19;;;-1.23;87.12
83762;BME280;73752;49.594;8.734;2024-01-30T05:32:03;100926.66;;;-1.21;86.90
83762;BME280;73752;49.594;8.734;2024-01-30T05:35:06;100920.88;;;-1.25;87.50
83762;BME280;73752;49.594;8.734;2024-01-30T05:38:08;100920.09;;;-1.14;87.04
83762;BME280;73752;49.594;8.734;2024-01-30T05:41:09;100924.44;;;-1.15;86.75
83762;BME280;73752;49.594;8.734;2024-01-30T05:44:11;100926.56;;;-1.20;86.87
83762;BME280;73752;49.594;8.734;2024-01-30T05:47:13;100907.25;;;-1.16;86.51
83762;BME280;73752;49.594;8.734;2024-01-30T05:50:14;100904.28;;;-1.22;86.87
83762;BME280;73752;49.594;8.734;2024-01-30T05:53:15;100923.88;;;-1.18;86.80
83762;BME280;73752;49.594;8.734;2024-01-30T05:56:17;100900.63;;;-1.31;86.92
83762;BME280;73752;49.594;8.734;2024-01-30T05:59:18;100906.16;;;-1.24;87.27
83762;BME280;73752;49.594;8.734;2024-01-30T06:02:22;100922.94;;;-1.17;87.36
83762;BME280;73752;49.594;8.734;2024-01-30T06:05:23;100900.47;;;-1.41;86.93
83762;BME280;73752;49.594;8.734;2024-01-30T06:08:25;100929.97;;;-1.19;87.02
83762;BME280;73752;49.594;8.734;2024-01-30T06:11:26;100904.81;;;-1.41;86.75
83762;BME280;73752;49.594;8.734;2024-01-30T06:14:28;100912.13;;;-1.35;86.40
83762;BME280;73752;49.594;8.734;2024-01-30T06:17:29;100902.56;;;-1.46;86.20
83762;BME280;73752;49.594;8.734;2024-01-30T06:20:30;100915.03;;;-1.40;86.25
83762;BME280;73752;49.594;8.734;2024-01-30T06:23:32;100904.22;;;-1.45;86.23
83762;BME280;73752;49.594;8.734;2024-01-30T06:26:34;100907.25;;;-1.51;86.92
83762;BME280;73752;49.594;8.734;2024-01-30T06:29:35;100900.19;;;-1.49;86.48
83762;BME280;73752;49.594;8.734;2024-01-30T06:32:36;100906.69;;;-1.43;86.72
83762;BME280;73752;49.594;8.734;2024-01-30T06:35:37;100900.06;;;-1.47;87.36
83762;BME280;73752;49.594;8.734;2024-01-30T06:38:41;100913.19;;;-1.38;87.54
83762;BME280;73752;49.594;8.734;2024-01-30T06:41:42;100916.25;;;-1.32;87.04
83762;BME280;73752;49.594;8.734;2024-01-30T06:44:43;100935.66;;;-1.14;87.50
83762;BME280;73752;49.594;8.734;2024-01-30T06:47:44;100902.88;;;-1.26;87.22
83762;BME280;73752;49.594;8.734;2024-01-30T06:50:45;100912.91;;;-1.22;87.72
83762;BME280;73752;49.594;8.734;2024-01-30T06:53:49;100912.28;;;-1.25;87.35
83762;BME280;73752;49.594;8.734;2024-01-30T06:56:50;100911.09;;;-1.32;87.32
83762;BME280;73752;49.594;8.734;2024-01-30T06:59:51;100937.69;;;-1.30;86.76
83762;BME280;73752;49.594;8.734;2024-01-30T07:02:52;100912.75;;;-1.31;87.23
83762;BME280;73752;49.594;8.734;2024-01-30T07:05:52;100921.22;;;-1.29;87.38
83762;BME280;73752;49.594;8.734;2024-01-30T07:08:53;100912.13;;;-1.35;86.92
83762;BME280;73752;49.594;8.734;2024-01-30T07:11:53;100913.91;;;-1.36;86.99
83762;BME280;73752;49.594;8.734;2024-01-30T07:14:55;100923.28;;;-1.22;86.99
83762;BME280;73752;49.594;8.734;2024-01-30T07:17:56;100904.63;;;-1.27;87.06
83762;BME280;73752;49.594;8.734;2024-01-30T07:20:57;100912.91;;;-1.22;86.40
83762;BME280;73752;49.594;8.734;2024-01-30T07:23:57;100901.69;;;-1.22;86.63
83762;BME280;73752;49.594;8.734;2024-01-30T07:26:57;100909.50;;;-1.11;86.28
83762;BME280;73752;49.594;8.734;2024-01-30T07:29:58;100914.88;;;-0.91;85.93
83762;BME280;73752;49.594;8.734;2024-01-30T07:32:58;100910.63;;;-0.92;86.21
83762;BME280;73752;49.594;8.734;2024-01-30T07:35:58;100912.38;;;-0.81;85.84
83762;BME280;73752;49.594;8.734;2024-01-30T07:38:59;100925.28;;;-0.68;86.22
83762;BME280;73752;49.594;8.734;2024-01-30T07:41:59;100918.66;;;-0.61;86.49
83762;BME280;73752;49.594;8.734;2024-01-30T07:45:00;100911.13;;;-0.53;86.07
83762;BME280;73752;49.594;8.734;2024-01-30T07:48:01;100908.19;;;-0.37;85.81
83762;BME280;73752;49.594;8.734;2024-01-30T07:51:01;100921.88;;;-0.35;84.93
83762;BME280;73752;49.594;8.734;2024-01-30T07:54:03;100917.03;;;-0.29;84.77
83762;BME280;73752;49.594;8.734;2024-01-30T07:57:03;100918.22;;;-0.33;84.05
83762;BME280;73752;49.594;8.734;2024-01-30T08:00:04;100932.72;;;-0.19;84.17
83762;BME280;73752;49.594;8.734;2024-01-30T08:03:06;100937.44;;;-0.35;82.96
83762;BME280;73752;49.594;8.734;2024-01-30T08:06:06;100931.69;;;-0.28;84.39
83762;BME280;73752;49.594;8.734;2024-01-30T08:09:06;100934.72;;;-0.12;83.70
83762;BME280;73752;49.594;8.734;2024-01-30T08:12:07;100938.72;;;-0.08;83.36
83762;BME280;73752;49.594;8.734;2024-01-30T08:15:08;100936.47;;;0.21;84.08
83762;BME280;73752;49.594;8.734;2024-01-30T08:18:08;100946.69;;;0.34;84.04
83762;BME280;73752;49.594;8.734;2024-01-30T08:21:09;100937.44;;;0.52;84.15
83762;BME280;73752;49.594;8.734;2024-01-30T08:24:09;100950.09;;;0.77;82.56
83762;BME280;73752;49.594;8.734;2024-01-30T08:27:10;100959.75;;;0.86;81.18
83762;BME280;73752;49.594;8.734;2024-01-30T08:30:10;100950.13;;;0.98;81.46
83762;BME280;73752;49.594;8.734;2024-01-30T08:33:11;100967.28;;;1.21;81.25
83762;BME280;73752;49.594;8.734;2024-01-30T08:36:11;100956.28;;;1.39;82.53
83762;BME280;73752;49.594;8.734;2024-01-30T08:39:12;100961.78;;;1.66;80.40
83762;BME280;73752;49.594;8.734;2024-01-30T08:42:12;100957.72;;;1.31;79.80
83762;BME280;73752;49.594;8.734;2024-01-30T08:45:12;100951.88;;;1.60;80.44
83762;BME280;73752;49.594;8.734;2024-01-30T08:48:13;100946.88;;;1.77;79.43
83762;BME280;73752;49.594;8.734;2024-01-30T08:51:13;100939.50;;;1.83;78.99
83762;BME280;73752;49.594;8.734;2024-01-30T08:54:15;100942.22;;;2.11;78.80
83762;BME280;73752;49.594;8.734;2024-01-30T08:57:16;100950.63;;;1.94;78.01
83762;BME280;73752;49.594;8.734;2024-01-30T09:00:16;100948.22;;;2.12;77.74
83762;BME280;73752;49.594;8.734;2024-01-30T09:03:17;100961.41;;;2.10;76.83
83762;BME280;73752;49.594;8.734;2024-01-30T09:06:17;100943.78;;;2.33;78.16
83762;BME280;73752;49.594;8.734;2024-01-30T09:09:18;100947.91;;;2.45;75.95
83762;BME280;73752;49.594;8.734;2024-01-30T09:12:18;100940.09;;;2.64;77.90
83762;BME280;73752;49.594;8.734;2024-01-30T09:15:18;100942.00;;;3.10;76.94
83762;BME280;73752;49.594;8.734;2024-01-30T09:18:19;100937.72;;;3.29;74.41
83762;BME280;73752;49.594;8.734;2024-01-30T09:21:19;100938.81;;;3.17;74.41
83762;BME280;73752;49.594;8.734;2024-01-30T09:24:20;100962.16;;;3.37;76.62
83762;BME280;73752;49.594;8.734;2024-01-30T09:27:20;100963.31;;;3.62;74.67
83762;BME280;73752;49.594;8.734;2024-01-30T09:30:20;100949.09;;;3.37;73.08
83762;BME280;73752;49.594;8.734;2024-01-30T09:33:21;100950.34;;;3.70;76.10
83762;BME280;73752;49.594;8.734;2024-01-30T09:36:21;100960.84;;;3.97;76.14
83762;BME280;73752;49.594;8.734;2024-01-30T09:39:22;100950.16;;;4.18;74.54
83762;BME280;73752;49.594;8.734;2024-01-30T09:45:26;100950.34;;;4.87;75.55
83762;BME280;73752;49.594;8.734;2024-01-30T09:48:26;100960.34;;;5.10;75.02
83762;BME280;73752;49.594;8.734;2024-01-30T09:51:27;100958.06;;;5.32;74.71
83762;BME280;73752;49.594;8.734;2024-01-30T09:54:32;100946.47;;;5.35;72.12
83762;BME280;73752;49.594;8.734;2024-01-30T09:57:33;100964.13;;;5.59;70.02
83762;BME280;73752;49.594;8.734;2024-01-30T10:00:34;100946.16;;;5.64;69.23
83762;BME280;73752;49.594;8.734;2024-01-30T10:03:35;100964.03;;;5.94;68.90
83762;BME280;73752;49.594;8.734;2024-01-30T10:06:36;100947.84;;;5.73;69.68
83762;BME280;73752;49.594;8.734;2024-01-30T10:09:37;100942.31;;;6.10;69.45
83762;BME280;73752;49.594;8.734;2024-01-30T10:12:39;100944.00;;;6.35;68.18
83762;BME280;73752;49.594;8.734;2024-01-30T10:15:39;100941.53;;;6.25;67.55
83762;BME280;73752;49.594;8.734;2024-01-30T10:18:41;100951.25;;;6.41;67.49
83762;BME280;73752;49.594;8.734;2024-01-30T10:21:41;100941.69;;;6.24;68.94
83762;BME280;73752;49.594;8.734;2024-01-30T10:24:42;100942.91;;;6.62;69.07
83762;BME280;73752;49.594;8.734;2024-01-30T10:27:45;100944.59;;;6.79;68.59
83762;BME280;73752;49.594;8.734;2024-01-30T10:30:45;100949.03;;;6.87;68.64
83762;BME280;73752;49.594;8.734;2024-01-30T10:33:45;100945.22;;;7.22;68.02
83762;BME280;73752;49.594;8.734;2024-01-30T10:36:49;100964.88;;;7.74;67.36
83762;BME280;73752;49.594;8.734;2024-01-30T10:39:53;100939.44;;;8.05;66.11
83762;BME280;73752;49.594;8.734;2024-01-30T10:42:55;100949.53;;;8.56;64.71
83762;BME280;73752;49.594;8.734;2024-01-30T10:45:57;100942.69;;;8.92;63.63
83762;BME280;73752;49.594;8.734;2024-01-30T10:49:00;100954.56;;;9.11;63.24
83762;BME280;73752;49.594;8.734;2024-01-30T10:52:03;100941.72;;;9.30;62.89
83762;BME280;73752;49.594;8.734;2024-01-30T10:55:05;100940.53;;;9.33;61.43
83762;BME280;73752;49.594;8.734;2024-01-30T10:58:07;100925.56;;;9.48;62.05
83762;BME280;73752;49.594;8.734;2024-01-30T11:01:08;100929.31;;;9.54;61.48
83762;BME280;73752;49.594;8.734;2024-01-30T11:04:10;100935.75;;;9.66;60.85
83762;BME280;73752;49.594;8.734;2024-01-30T11:07:17;100949.03;;;9.87;60.42
83762;BME280;73752;49.594;8.734;2024-01-30T11:10:18;100938.47;;;9.87;60.32
83762;BME280;73752;49.594;8.734;2024-01-30T11:13:19;100933.47;;;9.77;60.05
83762;BME280;73752;49.594;8.734;2024-01-30T11:16:20;100935.66;;;9.74;61.50
83762;BME280;73752;49.594;8.734;2024-01-30T11:19:30;100931.31;;;9.66;61.35
83762;BME280;73752;49.594;8.734;2024-01-30T11:22:31;100932.41;;;9.72;61.16
83762;BME280;73752;49.594;8.734;2024-01-30T11:25:32;100933.94;;;9.81;60.84
83762;BME280;73752;49.594;8.734;2024-01-30T11:28:36;100944.13;;;9.69;60.92
83762;BME280;73752;49.594;8.734;2024-01-30T11:31:37;100931.13;;;9.53;60.29
83762;BME280;73752;49.594;8.734;2024-01-30T11:34:40;100937.56;;;9.51;60.19
83762;BME280;73752;49.594;8.734;2024-01-30T11:37:42;100928.09;;;9.41;60.10
83762;BME280;73752;49.594;8.734;2024-01-30T11:40:43;100925.47;;;9.56;59.92
83762;BME280;73752;49.594;8.734;2024-01-30T11:43:53;100933.13;;;9.66;59.59
83762;BME280;73752;49.594;8.734;2024-01-30T11:46:54;100928.75;;;9.73;59.64
83762;BME280;73752;49.594;8.734;2024-01-30T11:49:54;100920.56;;;9.82;58.10
83762;BME280;73752;49.594;8.734;2024-01-30T11:52:55;100917.19;;;10.03;58.15
83762;BME280;73752;49.594;8.734;2024-01-30T11:55:56;100913.78;;;10.24;56.06
83762;BME280;73752;49.594;8.734;2024-01-30T11:58:56;100905.41;;;10.35;55.92
83762;BME280;73752;49.594;8.734;2024-01-30T12:01:56;100905.59;;;10.55;55.63
83762;BME280;73752;49.594;8.734;2024-01-30T12:04:57;100894.66;;;10.58;55.06
83762;BME280;73752;49.594;8.734;2024-01-30T12:07:57;100895.63;;;10.71;54.61
83762;BME280;73752;49.594;8.734;2024-01-30T12:11:01;100888.22;;;10.88;55.74
83762;BME280;73752;49.594;8.734;2024-01-30T12:14:02;100880.66;;;10.85;54.63
83762;BME280;73752;49.594;8.734;2024-01-30T12:17:03;100874.19;;;10.88;54.46
83762;BME280;73752;49.594;8.734;2024-01-30T12:23:04;100869.63;;;10.75;54.34
83762;BME280;73752;49.594;8.734;2024-01-30T12:26:04;100857.59;;;10.94;54.48
83762;BME280;73752;49.594;8.734;2024-01-30T12:29:07;100875.50;;;10.98;54.05
83762;BME280;73752;49.594;8.734;2024-01-30T12:32:07;100880.25;;;11.09;54.93
83762;BME280;73752;49.594;8.734;2024-01-30T12:35:12;100882.81;;;11.24;53.77
83762;BME280;73752;49.594;8.734;2024-01-30T12:38:14;100886.44;;;10.95;54.40
83762;BME280;73752;49.594;8.734;2024-01-30T12:41:14;100878.66;;;10.87;54.95
83762;BME280;73752;49.594;8.734;2024-01-30T12:44:15;100889.06;;;11.16;54.92
83762;BME280;73752;49.594;8.734;2024-01-30T12:47:15;100886.19;;;11.11;55.30
83762;BME280;73752;49.594;8.734;2024-01-30T12:50:16;100887.19;;;11.38;54.66
83762;BME280;73752;49.594;8.734;2024-01-30T12:53:17;100886.97;;;11.40;54.09
83762;BME280;73752;49.594;8.734;2024-01-30T12:56:18;100893.28;;;11.39;54.35
83762;BME280;73752;49.594;8.734;2024-01-30T12:59:18;100889.59;;;11.40;54.07
83762;BME280;73752;49.594;8.734;2024-01-30T13:02:19;100905.94;;;11.50;54.48
83762;BME280;73752;49.594;8.734;2024-01-30T13:05:19;100886.28;;;11.25;54.59
83762;BME280;73752;49.594;8.734;2024-01-30T13:08:21;100887.31;;;11.30;55.38
83762;BME280;73752;49.594;8.734;2024-01-30T13:11:21;100890.75;;;11.31;55.18
83762;BME280;73752;49.594;8.734;2024-01-30T13:14:22;100885.28;;;11.32;54.54
83762;BME280;73752;49.594;8.734;2024-01-30T13:17:22;100889.81;;;11.38;54.78
83762;BME280;73752;49.594;8.734;2024-01-30T13:20:23;100881.22;;;11.30;55.12
83762;BME280;73752;49.594;8.734;2024-01-30T13:23:23;100889.16;;;11.30;54.67
83762;BME280;73752;49.594;8.734;2024-01-30T13:26:24;100882.06;;;11.37;54.97
83762;BME280;73752;49.594;8.734;2024-01-30T13:29:24;100879.41;;;11.37;55.58
83762;BME280;73752;49.594;8.734;2024-01-30T13:37:06;100885.28;;;11.26;56.27
83762;BME280;73752;49.594;8.734;2024-01-30T13:40:50;100866.94;;;10.96;57.00
83762;BME280;73752;49.594;8.734;2024-01-30T13:43:51;100873.09;;;10.76;57.79
83762;BME280;73752;49.594;8.734;2024-01-30T13:46:52;100861.84;;;10.67;58.04
83762;BME280;73752;49.594;8.734;2024-01-30T13:49:53;100862.41;;;10.62;58.52
83762;BME280;73752;49.594;8.734;2024-01-30T13:52:54;100881.56;;;10.92;58.36
83762;BME280;73752;49.594;8.734;2024-01-30T13:55:54;100874.94;;;10.82;58.77
83762;BME280;73752;49.594;8.734;2024-01-30T13:58:55;100889.88;;;10.89;58.70
83762;BME280;73752;49.594;8.734;2024-01-30T14:02:02;100863.56;;;10.81;58.63
83762;BME280;73752;49.594;8.734;2024-01-30T14:05:04;100871.47;;;10.81;59.19
83762;BME280;73752;49.594;8.734;2024-01-30T14:08:05;100859.38;;;10.65;59.03
83762;BME280;73752;49.594;8.734;2024-01-30T14:11:05;100861.31;;;10.78;58.68
83762;BME280;73752;49.594;8.734;2024-01-30T14:14:06;100864.44;;;10.88;58.85
83762;BME280;73752;49.594;8.734;2024-01-30T14:17:07;100860.09;;;11.02;58.87
83762;BME280;73752;49.594;8.734;2024-01-30T14:20:07;100875.97;;;11.08;58.53
83762;BME280;73752;49.594;8.734;2024-01-30T14:23:08;100858.84;;;10.77;59.66
83762;BME280;73752;49.594;8.734;2024-01-30T14:26:08;100854.41;;;10.56;59.62
83762;BME280;73752;49.594;8.734;2024-01-30T14:29:09;100856.16;;;10.70;59.74
83762;BME280;73752;49.594;8.734;2024-01-30T14:32:09;100846.00;;;10.67;59.89
83762;BME280;73752;49.594;8.734;2024-01-30T14:35:09;100856.41;;;10.75;59.99
83762;BME280;73752;49.594;8.734;2024-01-30T14:38:10;100850.00;;;10.63;59.58
83762;BME280;73752;49.594;8.734;2024-01-30T14:41:10;100874.34;;;10.80;59.95
83762;BME280;73752;49.594;8.734;2024-01-30T14:44:11;100861.31;;;10.78;60.06
83762;BME280;73752;49.594;8.734;2024-01-30T14:47:15;100883.91;;;10.81;60.10
83762;BME280;73752;49.594;8.734;2024-01-30T14:50:16;100889.13;;;10.74;60.89
83762;BME280;73752;49.594;8.734;2024-01-30T14:53:17;100884.72;;;10.60;61.57
83762;BME280;73752;49.594;8.734;2024-01-30T14:56:20;100882.25;;;10.58;61.65
83762;BME280;73752;49.594;8.734;2024-01-30T14:59:21;100877.31;;;10.49;61.41
83762;BME280;73752;49.594;8.734;2024-01-30T15:02:22;100888.06;;;10.47;62.29
83762;BME280;73752;49.594;8.734;2024-01-30T15:05:22;100886.28;;;10.33;62.29
83762;BME280;73752;49.594;8.734;2024-01-30T15:08:23;100888.97;;;10.18;62.62
83762;BME280;73752;49.594;8.734;2024-01-30T15:11:23;100894.22;;;10.18;62.67
83762;BME280;73752;49.594;8.734;2024-01-30T15:14:24;100900.03;;;10.14;63.72
83762;BME280;73752;49.594;8.734;2024-01-30T15:17:24;100901.34;;;10.03;63.71
83762;BME280;73752;49.594;8.734;2024-01-30T15:20:25;100903.72;;;9.98;63.67
83762;BME280;73752;49.594;8.734;2024-01-30T15:23:25;100903.56;;;9.85;63.74
83762;BME280;73752;49.594;8.734;2024-01-30T15:26:25;100881.91;;;9.60;64.53
83762;BME280;73752;49.594;8.734;2024-01-30T15:29:26;100902.91;;;9.68;64.42
83762;BME280;73752;49.594;8.734;2024-01-30T15:32:26;100893.38;;;9.53;64.58
83762;BME280;73752;49.594;8.734;2024-01-30T15:35:27;100903.38;;;9.57;64.92
83762;BME280;73752;49.594;8.734;2024-01-30T15:38:27;100912.56;;;9.61;65.22
83762;BME280;73752;49.594;8.734;2024-01-30T15:41:29;100920.03;;;9.58;65.04
83762;BME280;73752;49.594;8.734;2024-01-30T15:44:29;100917.56;;;9.56;65.38
83762;BME280;73752;49.594;8.734;2024-01-30T15:48:04;100913.66;;;9.52;65.51
83762;BME280;73752;49.594;8.734;2024-01-30T15:51:43;100917.75;;;9.40;66.47
83762;BME280;73752;49.594;8.734;2024-01-30T15:54:44;100913.31;;;9.40;66.33
83762;BME280;73752;49.594;8.734;2024-01-30T15:57:44;100921.38;;;9.39;66.39
83762;BME280;73752;49.594;8.734;2024-01-30T16:00:45;100917.06;;;9.23;67.16
83762;BME280;73752;49.594;8.734;2024-01-30T16:03:46;100923.41;;;9.14;67.86